createdAt,value
2016-09-12T00:00:38.197Z,79
2016-09-12T00:01:38.214Z,79.28
2016-09-12T00:02:38.205Z,79.1
2016-09-12T00:03:38.200Z,79.58
2016-09-12T00:04:38.211Z,79.48
2016-09-12T00:05:38.226Z,79.38
2016-09-12T00:06:38.227Z,79.92
2016-09-12T00:07:38.264Z,79.86
2016-09-12T00:08:38.216Z,79.86
2016-09-12T00:09:38.531Z,79.86
2016-09-12T00:10:38.252Z,79.92
2016-09-12T00:11:38.229Z,80.5
2016-09-12T00:12:38.225Z,80.11
2016-09-12T00:13:38.237Z,79.82
2016-09-12T00:14:38.312Z,80.4
2016-09-12T00:15:38.232Z,80.6
2016-09-12T00:16:38.231Z,80.21
2016-09-12T00:17:38.230Z,80.5
2016-09-12T00:18:38.280Z,80.11
2016-09-12T00:19:38.245Z,80.5
2016-09-12T00:20:38.241Z,80.79
2016-09-12T00:21:38.242Z,80.5
2016-09-12T00:22:38.314Z,80.98
2016-09-12T00:23:38.267Z,81.65
2016-09-12T00:24:38.266Z,81.56
2016-09-12T00:25:38.575Z,81.46
2016-09-12T00:26:38.762Z,81.6
2016-09-12T00:27:38.261Z,81.07
2016-09-12T00:28:38.579Z,81.12
2016-09-12T00:29:38.275Z,81.02
2016-09-12T00:30:38.302Z,81.12
2016-09-12T00:31:38.603Z,80.92
2016-09-12T00:32:38.272Z,80.92
2016-09-12T00:33:38.304Z,80.92
2016-09-12T00:34:38.278Z,80.92
2016-09-12T00:35:38.594Z,80.83
2016-09-12T00:36:38.331Z,80.92
2016-09-12T00:37:38.340Z,80.83
2016-09-12T00:38:38.603Z,80.88
2016-09-12T00:39:38.292Z,81.07
2016-09-12T00:40:38.335Z,81.37
2016-09-12T00:41:38.293Z,81.56
2016-09-12T00:42:38.293Z,82.04
2016-09-12T00:43:38.317Z,82.04
2016-09-12T00:44:38.298Z,82.32
2016-09-12T00:45:38.302Z,82.14
2016-09-12T00:46:38.304Z,82.42
2016-09-12T00:47:38.310Z,82.42
2016-09-12T00:48:38.320Z,82.32
2016-09-12T00:49:38.322Z,82.61
2016-09-12T00:50:38.310Z,82.61
2016-09-12T00:51:38.360Z,82.42
2016-09-12T00:52:38.317Z,83.09
2016-09-12T00:53:38.347Z,83
2016-09-12T00:54:38.346Z,83
2016-09-12T00:55:38.323Z,83
2016-09-12T00:56:38.326Z,82.9
2016-09-12T00:57:38.365Z,82.81
2016-09-12T00:58:38.361Z,82.71
2016-09-12T00:59:38.597Z,83
2016-09-12T01:00:38.338Z,82.71
2016-09-12T01:01:38.687Z,82.9
2016-09-12T01:02:38.392Z,82.9
2016-09-12T01:03:38.346Z,83.09
2016-09-12T01:04:38.346Z,82.14
2016-09-12T01:05:38.353Z,82.42
2016-09-12T01:06:38.355Z,82.9
2016-09-12T01:07:38.356Z,82.71
2016-09-12T01:08:38.674Z,83.19
2016-09-12T01:09:38.361Z,82.81
2016-09-12T01:10:38.365Z,82.9
2016-09-12T01:11:38.367Z,83.19
2016-09-12T01:12:38.373Z,83.34
2016-09-12T01:13:38.369Z,83.63
2016-09-12T01:14:38.377Z,84.01
2016-09-12T01:15:38.721Z,84.11
2016-09-12T01:16:38.384Z,83.92
2016-09-12T01:17:38.692Z,84.69
2016-09-12T01:18:38.498Z,84.69
2016-09-12T01:19:38.385Z,84.78
2016-09-12T01:20:38.382Z,84.21
2016-09-12T01:21:38.716Z,84.98
2016-09-12T01:22:38.396Z,84.78
2016-09-12T01:23:38.394Z,84.59
2016-09-12T01:24:38.404Z,85.07
2016-09-12T01:25:38.399Z,84.84
2016-09-12T01:26:38.422Z,84.78
2016-09-12T01:27:38.445Z,84.88
2016-09-12T01:28:38.412Z,84.59
2016-09-12T01:29:38.428Z,84.98
2016-09-12T01:30:38.419Z,85.46
2016-09-12T01:31:38.430Z,84.94
2016-09-12T01:32:38.410Z,85.32
2016-09-12T01:33:38.503Z,85.13
2016-09-12T01:34:38.427Z,85.32
2016-09-12T01:35:38.415Z,85.51
2016-09-12T01:36:38.574Z,85.71
2016-09-12T01:37:38.466Z,85.84
2016-09-12T01:38:38.421Z,85.22
2016-09-12T01:39:38.438Z,85.22
2016-09-12T01:40:38.764Z,85.36
2016-09-12T01:41:38.525Z,85.46
2016-09-12T01:42:38.434Z,85.13
2016-09-12T01:43:38.432Z,85.13
2016-09-12T01:44:38.439Z,85.27
2016-09-12T01:45:38.749Z,85.46
2016-09-12T01:46:38.444Z,85.36
2016-09-12T01:47:38.460Z,85.36
2016-09-12T01:48:38.457Z,85.36
2016-09-12T01:49:38.461Z,85.36
2016-09-12T01:50:38.462Z,85.55
2016-09-12T01:51:38.504Z,85.55
2016-09-12T01:52:38.493Z,85.65
2016-09-12T01:53:38.459Z,85.84
2016-09-12T01:54:38.461Z,84.98
2016-09-12T01:55:38.465Z,85.36
2016-09-12T01:56:38.464Z,85.55
2016-09-12T01:57:38.776Z,84.98
2016-09-12T01:58:38.480Z,84.88
2016-09-12T01:59:38.475Z,84.69
2016-09-12T02:00:38.478Z,85.27
2016-09-12T02:01:38.479Z,84.98
2016-09-12T02:02:38.794Z,84.98
2016-09-12T02:03:38.487Z,85.36
2016-09-12T02:04:38.804Z,85.17
2016-09-12T02:05:38.818Z,85.46
2016-09-12T02:06:38.492Z,85.65
2016-09-12T02:07:38.494Z,85.46
2016-09-12T02:08:38.497Z,85.46
2016-09-12T02:09:38.507Z,85.55
2016-09-12T02:10:38.510Z,85.36
2016-09-12T02:11:38.498Z,85.55
2016-09-12T02:12:38.500Z,85.65
2016-09-12T02:13:38.646Z,85.84
2016-09-12T02:14:38.501Z,85.75
2016-09-12T02:15:38.509Z,85.36
2016-09-12T02:16:38.539Z,85.17
2016-09-12T02:17:38.513Z,85.36
2016-09-12T02:18:38.552Z,85.17
2016-09-12T02:19:38.894Z,85.27
2016-09-12T02:20:38.521Z,85.27
2016-09-12T02:21:38.519Z,85.46
2016-09-12T02:22:38.571Z,85.27
2016-09-12T02:23:38.520Z,84.98
2016-09-12T02:24:38.521Z,84.5
2016-09-12T02:25:38.546Z,84.78
2016-09-12T02:26:38.526Z,84.98
2016-09-12T02:27:38.532Z,85.36
2016-09-12T02:28:38.530Z,85.22
2016-09-12T02:29:38.536Z,84.98
2016-09-12T02:30:38.534Z,85.61
2016-09-12T02:31:38.570Z,85.51
2016-09-12T02:32:38.554Z,85.8
2016-09-12T02:33:38.563Z,85.99
2016-09-12T02:34:38.552Z,86.09
2016-09-12T02:35:38.561Z,86.38
2016-09-12T02:36:38.652Z,86.18
2016-09-12T02:37:38.551Z,86.66
2016-09-12T02:38:38.867Z,86.47
2016-09-12T02:39:38.556Z,86.47
2016-09-12T02:40:38.554Z,86.66
2016-09-12T02:41:38.578Z,86.66
2016-09-12T02:42:38.567Z,86.66
2016-09-12T02:43:38.575Z,86.85
2016-09-12T02:44:38.904Z,87.15
2016-09-12T02:45:38.573Z,87.34
2016-09-12T02:46:38.885Z,87.24
2016-09-12T02:47:38.569Z,87.53
2016-09-12T02:48:38.605Z,87.58
2016-09-12T02:49:38.591Z,87.58
2016-09-12T02:50:38.588Z,87.15
2016-09-12T02:51:38.913Z,87.24
2016-09-12T02:52:38.616Z,87.01
2016-09-12T02:53:38.589Z,87.34
2016-09-12T02:54:38.582Z,87.53
2016-09-12T02:55:38.583Z,87.49
2016-09-12T02:56:38.595Z,87.39
2016-09-12T02:57:38.592Z,87.29
2016-09-12T02:58:38.630Z,87.72
2016-09-12T02:59:38.598Z,87.24
2016-09-12T03:00:38.607Z,87.19
2016-09-12T03:01:38.604Z,87.96
2016-09-12T03:02:38.596Z,87.49
2016-09-12T03:03:38.603Z,87.77
2016-09-12T03:04:38.602Z,87.87
2016-09-12T03:05:38.729Z,87.58
2016-09-12T03:06:38.930Z,87.68
2016-09-12T03:07:38.612Z,87.68
2016-09-12T03:08:38.618Z,87.96
2016-09-12T03:09:38.616Z,87.77
2016-09-12T03:10:38.613Z,87.87
2016-09-12T03:11:38.951Z,87.58
2016-09-12T03:12:38.639Z,87.77
2016-09-12T03:13:38.636Z,87.77
2016-09-12T03:14:38.645Z,87.29
2016-09-12T03:15:38.959Z,87.96
2016-09-12T03:16:38.646Z,87.58
2016-09-12T03:17:38.649Z,87.49
2016-09-12T03:18:38.648Z,87.29
2016-09-12T03:19:38.642Z,87.87
2016-09-12T03:20:38.663Z,87.87
2016-09-12T03:21:38.639Z,87.68
2016-09-12T03:22:38.638Z,87.96
2016-09-12T03:23:38.735Z,87.87
2016-09-12T03:24:38.650Z,87.87
2016-09-12T03:25:38.675Z,87.49
2016-09-12T03:26:38.655Z,87.68
2016-09-12T03:27:38.693Z,87.68
2016-09-12T03:28:38.995Z,87.87
2016-09-12T03:29:38.992Z,88.35
2016-09-12T03:30:38.655Z,88.35
2016-09-12T03:31:38.690Z,88.16
2016-09-12T03:32:38.659Z,87.58
2016-09-12T03:33:38.754Z,87.77
2016-09-12T03:34:38.662Z,88.25
2016-09-12T03:35:38.665Z,87.87
2016-09-12T03:36:38.716Z,88.06
2016-09-12T03:37:38.679Z,88.06
2016-09-12T03:38:38.679Z,88.06
2016-09-12T03:39:38.671Z,87.68
2016-09-12T03:40:38.679Z,87.77
2016-09-12T03:41:38.681Z,87.68
2016-09-12T03:42:38.678Z,87.87
2016-09-12T03:43:38.697Z,87.87
2016-09-12T03:44:38.682Z,87.77
2016-09-12T03:45:38.701Z,88.06
2016-09-12T03:46:38.703Z,88.25
2016-09-12T03:47:38.689Z,88.64
2016-09-12T03:48:38.695Z,88.11
2016-09-12T03:49:38.690Z,88.31
2016-09-12T03:50:38.694Z,88.31
2016-09-12T03:51:38.704Z,88.49
2016-09-12T03:52:38.697Z,88.31
2016-09-12T03:53:38.698Z,88.69
2016-09-12T03:54:38.754Z,89.46
2016-09-12T03:55:38.714Z,88.79
2016-09-12T03:56:38.716Z,88.64
2016-09-12T03:57:38.719Z,89.4
2016-09-12T03:58:38.706Z,88.83
2016-09-12T03:59:38.710Z,88.64
2016-09-12T04:00:38.718Z,88.83
2016-09-12T04:01:38.728Z,88.54
2016-09-12T04:02:38.722Z,88.83
2016-09-12T04:03:39.048Z,88.35
2016-09-12T04:04:38.716Z,88.49
2016-09-12T04:05:38.730Z,88.73
2016-09-12T04:06:38.738Z,88.25
2016-09-12T04:07:38.768Z,88.59
2016-09-12T04:08:38.727Z,88.54
2016-09-12T04:09:38.724Z,88.45
2016-09-12T04:10:38.730Z,88.4
2016-09-12T04:11:39.024Z,88.73
2016-09-12T04:12:39.054Z,88.73
2016-09-12T04:13:38.786Z,88.73
2016-09-12T04:14:38.797Z,88.45
2016-09-12T04:15:38.748Z,88.35
2016-09-12T04:16:38.740Z,88.45
2016-09-12T04:17:39.081Z,88.73
2016-09-12T04:18:38.764Z,88.83
2016-09-12T04:19:38.744Z,88.73
2016-09-12T04:20:38.748Z,88.35
2016-09-12T04:21:38.756Z,89.07
2016-09-12T04:22:38.749Z,89.36
2016-09-12T04:23:38.756Z,88.64
2016-09-12T04:24:38.755Z,88.73
2016-09-12T04:25:38.755Z,89.36
2016-09-12T04:26:38.777Z,89.26
2016-09-12T04:27:38.759Z,89.22
2016-09-12T04:28:38.818Z,88.98
2016-09-12T04:29:38.763Z,89.36
2016-09-12T04:30:38.776Z,89.4
2016-09-12T04:31:38.766Z,88.64
2016-09-12T04:32:38.812Z,89.02
2016-09-12T04:33:38.769Z,88.98
2016-09-12T04:34:38.782Z,88.88
2016-09-12T04:35:38.788Z,89.22
2016-09-12T04:36:38.831Z,88.79
2016-09-12T04:37:38.955Z,89.17
2016-09-12T04:38:39.108Z,89.36
2016-09-12T04:39:38.792Z,89.17
2016-09-12T04:40:38.792Z,89.17
2016-09-12T04:41:38.786Z,89.07
2016-09-12T04:42:38.785Z,89.07
2016-09-12T04:43:38.822Z,89.22
2016-09-12T04:44:38.797Z,88.79
2016-09-12T04:45:38.805Z,89.02
2016-09-12T04:46:38.798Z,88.98
2016-09-12T04:47:38.798Z,89.17
2016-09-12T04:48:38.793Z,89.17
2016-09-12T04:49:38.798Z,89.17
2016-09-12T04:50:38.799Z,88.88
2016-09-12T04:51:38.812Z,88.79
2016-09-12T04:52:39.123Z,89.07
2016-09-12T04:53:38.808Z,88.98
2016-09-12T04:54:38.817Z,89.07
2016-09-12T04:55:38.817Z,89.46
2016-09-12T04:56:38.812Z,89.55
2016-09-12T04:57:39.160Z,90.13
2016-09-12T04:58:38.818Z,89.94
2016-09-12T04:59:38.822Z,90.13
2016-09-12T05:00:38.817Z,89.94
2016-09-12T05:01:38.827Z,90.22
2016-09-12T05:02:38.823Z,89.89
2016-09-12T05:03:38.820Z,90.42
2016-09-12T05:04:38.868Z,89.17
2016-09-12T05:05:38.831Z,88.93
2016-09-12T05:06:39.084Z,89.12
2016-09-12T05:07:38.850Z,89.22
2016-09-12T05:08:39.161Z,89.02
2016-09-12T05:09:39.149Z,89.12
2016-09-12T05:10:38.837Z,88.73
2016-09-12T05:11:38.843Z,89.22
2016-09-12T05:12:38.843Z,88.64
2016-09-12T05:13:38.848Z,88.45
2016-09-12T05:14:38.878Z,88.64
2016-09-12T05:15:38.884Z,88.54
2016-09-12T05:16:38.845Z,88.25
2016-09-12T05:17:38.875Z,88.25
2016-09-12T05:18:38.875Z,88.25
2016-09-12T05:19:38.872Z,88.25
2016-09-12T05:20:38.878Z,88.25
2016-09-12T05:21:38.878Z,88.25
2016-09-12T05:22:38.878Z,88.06
2016-09-12T05:23:38.884Z,88.16
2016-09-12T05:24:38.876Z,88.16
2016-09-12T05:25:38.875Z,87.68
2016-09-12T05:26:38.883Z,87.87
2016-09-12T05:27:38.887Z,87.77
2016-09-12T05:28:39.231Z,87.96
2016-09-12T05:29:38.883Z,86.95
2016-09-12T05:30:38.879Z,86.38
2016-09-12T05:31:38.884Z,86.38
2016-09-12T05:32:38.897Z,86.28
2016-09-12T05:33:38.887Z,86.28
2016-09-12T05:34:38.922Z,86.47
2016-09-12T05:35:39.418Z,87.05
2016-09-12T05:36:39.256Z,87.72
2016-09-12T05:37:39.174Z,87.53
2016-09-12T05:38:38.895Z,87.49
2016-09-12T05:39:38.905Z,87.68
2016-09-12T05:40:38.898Z,87.87
2016-09-12T05:41:38.908Z,87.58
2016-09-12T05:42:38.981Z,87.29
2016-09-12T05:43:39.220Z,87.77
2016-09-12T05:44:40.106Z,87.77
2016-09-12T05:45:38.937Z,87.68
2016-09-12T05:46:38.911Z,87.58
2016-09-12T05:47:38.938Z,87.68
2016-09-12T05:48:38.928Z,87.68
2016-09-12T05:49:39.083Z,87.68
2016-09-12T05:50:38.930Z,87.58
2016-09-12T05:51:38.954Z,87.68
2016-09-12T05:52:38.917Z,87.43
2016-09-12T05:53:38.960Z,86.76
2016-09-12T05:54:38.959Z,87.01
2016-09-12T05:55:38.924Z,87.15
2016-09-12T05:56:38.951Z,86.85
2016-09-12T05:57:38.952Z,87.15
2016-09-12T05:58:38.965Z,86.47
2016-09-12T05:59:39.207Z,86.76
2016-09-12T06:00:38.991Z,86.66
2016-09-12T06:01:38.962Z,86.09
2016-09-12T06:02:39.327Z,85.89
2016-09-12T06:03:38.938Z,85.8
2016-09-12T06:04:38.940Z,85.51
2016-09-12T06:05:38.954Z,85.03
2016-09-12T06:06:38.968Z,84.88
2016-09-12T06:07:38.955Z,84.45
2016-09-12T06:08:39.056Z,84.45
2016-09-12T06:09:50.646Z,84.4
2016-09-12T06:10:38.969Z,84.59
2016-09-12T06:11:38.968Z,84.3
2016-09-12T06:12:39.084Z,84.4
2016-09-12T06:13:39.249Z,83.83
2016-09-12T06:14:39.084Z,83.92
2016-09-12T06:15:38.976Z,83.63
2016-09-12T06:16:39.179Z,83.34
2016-09-12T06:17:38.984Z,83.25
2016-09-12T06:18:38.975Z,82.67
2016-09-12T06:19:38.973Z,82.57
2016-09-12T06:20:45.853Z,82.86
2016-09-12T06:21:54.559Z,82.23
2016-09-12T06:23:29.556Z,82.04
2016-09-12T06:24:36.841Z,81.94
2016-09-12T06:25:36.844Z,81.56
2016-09-12T06:26:36.861Z,81.65
2016-09-12T06:27:36.845Z,82.04
2016-09-12T06:28:36.852Z,81.37
2016-09-12T06:29:36.855Z,81.46
2016-09-12T06:30:36.866Z,81.56
2016-09-12T06:31:36.859Z,81.46
2016-09-12T06:32:36.921Z,80.98
2016-09-12T06:33:36.874Z,81.07
2016-09-12T06:34:36.869Z,80.88
2016-09-12T06:35:36.873Z,80.3
2016-09-12T06:36:36.965Z,80.25
2016-09-12T06:37:36.905Z,79.82
2016-09-12T06:38:36.871Z,79.86
2016-09-12T06:39:36.878Z,79.67
2016-09-12T06:40:37.169Z,79.77
2016-09-12T06:42:08.265Z,76.5
2016-09-12T06:44:06.519Z,73.3
2016-09-12T06:58:54.996Z,57.48
2016-09-12T07:01:30.679Z,60.01
2016-09-12T07:11:50.948Z,58.92
2016-09-12T07:30:57.195Z,51.5
2016-09-12T07:30:59.433Z,47.44
2016-09-12T12:38:18.486Z,39.37
2016-09-12T12:38:46.361Z,41.15
2016-09-12T12:39:46.370Z,39.57
2016-09-12T12:40:46.376Z,41.25
2016-09-12T12:41:46.381Z,40.37
2016-09-12T12:42:46.391Z,41.25
2016-09-12T12:43:46.395Z,39.2
2016-09-12T12:44:46.394Z,38.81
2016-09-12T12:45:46.400Z,39.98
2016-09-12T12:46:46.409Z,40.08
2016-09-12T12:47:46.429Z,40.08
2016-09-12T12:48:46.424Z,39.98
2016-09-12T12:49:46.426Z,40.17
2016-09-12T12:50:46.433Z,38.22
2016-09-12T12:51:46.437Z,38.04
2016-09-12T12:52:46.443Z,37.75
2016-09-12T12:53:46.462Z,38.04
2016-09-12T12:54:46.466Z,37.83
2016-09-12T12:55:46.463Z,40.29
2016-09-12T12:56:46.471Z,38.34
2016-09-12T12:57:46.478Z,38.63
2016-09-12T12:58:46.485Z,38.53
2016-09-12T12:59:46.494Z,40.08
2016-09-12T13:00:46.493Z,38.63
2016-09-12T13:01:46.502Z,38.61
2016-09-12T13:02:46.508Z,37.83
2016-09-12T13:03:46.511Z,38.61
2016-09-12T13:04:46.518Z,40.27
2016-09-12T13:05:46.533Z,39.29
2016-09-12T13:06:46.528Z,41.17
2016-09-12T13:07:46.533Z,38.73
2016-09-12T13:08:46.540Z,37.37
2016-09-12T13:09:46.550Z,37.55
2016-09-12T13:10:46.556Z,37.65
2016-09-12T13:11:46.569Z,36.78
2016-09-12T13:12:46.570Z,37.46
2016-09-12T13:13:46.572Z,38.92
2016-09-12T13:14:46.581Z,37.37
2016-09-12T13:15:46.588Z,37.27
2016-09-12T13:16:46.591Z,38.75
2016-09-12T13:17:46.601Z,40.01
2016-09-12T13:18:46.607Z,37.85
2016-09-12T13:19:46.610Z,36.58
2016-09-12T13:20:46.630Z,36.39
2016-09-12T13:21:46.633Z,36.1
2016-09-12T13:22:46.634Z,36.7
2016-09-12T13:23:46.637Z,36.58
2016-09-12T13:24:46.641Z,36.98
2016-09-12T13:25:46.645Z,36.78
2016-09-12T13:26:46.655Z,36.88
2016-09-12T13:27:46.670Z,36.88
2016-09-12T13:28:46.667Z,36.88
2016-09-12T13:29:46.674Z,37.07
2016-09-12T13:30:46.678Z,36.98
2016-09-12T13:31:46.688Z,36.88
2016-09-12T13:32:46.700Z,36.41
2016-09-12T13:33:46.698Z,37.48
2016-09-12T13:34:46.707Z,40.8
2016-09-12T13:35:46.711Z,37.48
2016-09-12T13:36:46.719Z,36.52
2016-09-12T13:37:46.724Z,36.41
2016-09-12T13:38:46.783Z,36.13
2016-09-12T13:39:46.742Z,36.23
2016-09-12T13:40:46.746Z,36.23
2016-09-12T13:41:46.750Z,36.43
2016-09-12T13:42:46.773Z,36.33
2016-09-12T13:43:46.766Z,36.41
2016-09-12T13:44:46.771Z,36.31
2016-09-12T13:45:46.775Z,35.84
2016-09-12T13:46:46.784Z,35.92
2016-09-12T13:47:46.790Z,35.82
2016-09-12T13:48:46.803Z,35.63
2016-09-12T13:49:46.804Z,35.55
2016-09-12T13:50:46.818Z,35.74
2016-09-12T13:51:46.864Z,35.45
2016-09-12T13:52:46.875Z,35.06
2016-09-12T13:53:46.828Z,35.35
2016-09-12T13:54:46.837Z,35.06
2016-09-12T13:55:46.842Z,35.06
2016-09-12T13:56:47.158Z,35.06
2016-09-12T13:57:46.853Z,35.84
2016-09-12T13:58:46.862Z,36.04
2016-09-12T13:59:46.866Z,36.43
2016-09-12T14:00:46.880Z,36.23
2016-09-12T14:01:46.881Z,35.84
2016-09-12T14:02:46.885Z,35.74
2016-09-12T14:03:46.894Z,36.13
2016-09-12T14:04:46.899Z,36.23
2016-09-12T14:05:46.905Z,36.43
2016-09-12T14:06:46.913Z,36.13
2016-09-12T14:07:46.951Z,34.77
2016-09-12T14:08:46.938Z,37.7
2016-09-12T14:09:46.952Z,34.96
2016-09-12T14:10:46.945Z,35.74
2016-09-12T14:11:46.945Z,35.55
2016-09-12T14:12:46.946Z,35.04
2016-09-12T14:13:46.956Z,35.53
2016-09-12T14:14:46.967Z,35.04
2016-09-12T14:15:46.967Z,34.86
2016-09-12T14:16:46.977Z,35.06
2016-09-12T14:17:46.981Z,34.67
2016-09-12T14:18:46.989Z,33.89
2016-09-12T14:19:46.997Z,33.89
2016-09-12T14:20:47.004Z,33.69
2016-09-12T14:21:47.018Z,33.79
2016-09-12T14:22:47.023Z,36.62
2016-09-12T14:23:47.022Z,36.23
2016-09-12T14:24:47.025Z,34.86
2016-09-12T14:25:47.033Z,35.06
2016-09-12T14:26:47.042Z,35.45
2016-09-12T14:27:47.048Z,34.96
2016-09-12T14:28:47.056Z,35.25
2016-09-12T14:29:47.129Z,34.57
2016-09-12T14:30:47.132Z,33.79
2016-09-12T14:31:47.073Z,34.77
2016-09-12T14:32:47.081Z,34.77
2016-09-12T14:33:47.095Z,34.67
2016-09-12T14:34:47.087Z,34.28
2016-09-12T14:35:47.097Z,33.69
2016-09-12T14:36:47.114Z,33.79
2016-09-12T14:37:47.108Z,35.55
2016-09-12T14:38:47.275Z,35.55
2016-09-12T14:39:47.122Z,35.16
2016-09-12T14:40:47.126Z,35.45
2016-09-12T14:41:47.135Z,36.82
2016-09-12T14:42:47.139Z,35.64
2016-09-12T14:43:47.146Z,35.25
2016-09-12T14:44:47.156Z,35.45
2016-09-12T14:45:47.159Z,36.33
2016-09-12T14:46:47.165Z,36.23
2016-09-12T14:47:47.175Z,36.43
2016-09-12T14:48:47.179Z,37.01
2016-09-12T14:49:47.187Z,36.23
2016-09-12T14:50:47.196Z,35.55
2016-09-12T14:51:47.206Z,35.64
2016-09-12T14:52:47.207Z,35.74
2016-09-12T14:53:47.210Z,35.64
2016-09-12T14:54:47.220Z,35.25
2016-09-12T14:55:47.226Z,35.06
2016-09-12T14:56:47.548Z,35.16
2016-09-12T14:57:47.242Z,35.16
2016-09-12T14:58:47.242Z,35.25
2016-09-12T14:59:47.259Z,35.35
2016-09-12T15:00:47.260Z,35.25
2016-09-12T15:01:47.266Z,35.45
2016-09-12T15:02:47.291Z,38.96
2016-09-12T15:03:47.274Z,36.23
2016-09-12T15:04:47.282Z,38.06
2016-09-12T15:05:47.287Z,36.21
2016-09-12T15:06:47.295Z,35.82
2016-09-12T15:07:47.302Z,35.43
2016-09-12T15:08:47.308Z,35.63
2016-09-12T15:09:47.314Z,35.45
2016-09-12T15:10:47.319Z,35.45
2016-09-12T15:11:47.325Z,35.35
2016-09-12T15:12:47.645Z,35.64
2016-09-12T15:13:47.344Z,36.13
2016-09-12T15:14:47.346Z,36.02
2016-09-12T15:15:47.594Z,36.13
2016-09-12T15:16:47.357Z,36.31
2016-09-12T15:17:47.365Z,36.41
2016-09-12T15:18:47.379Z,36.31
2016-09-12T15:19:47.376Z,36.43
2016-09-12T15:20:47.381Z,36.41
2016-09-12T15:21:47.388Z,36.31
2016-09-12T15:22:47.404Z,35.84
2016-09-12T15:23:47.408Z,36.62
2016-09-12T15:24:47.410Z,35.82
2016-09-12T15:25:47.413Z,37.6
2016-09-12T15:26:47.420Z,35.82
2016-09-12T15:27:47.427Z,36.41
2016-09-12T15:28:47.437Z,38.35
2016-09-12T15:29:47.441Z,36.9
2016-09-12T15:30:47.442Z,36.99
2016-09-12T15:31:47.462Z,36.31
2016-09-12T15:32:47.463Z,36.31
2016-09-12T15:33:47.472Z,36.31
2016-09-12T15:34:47.466Z,35.72
2016-09-12T15:35:47.489Z,35.63
2016-09-12T15:36:47.496Z,35.63
2016-09-12T15:37:47.485Z,35.82
2016-09-12T15:38:47.547Z,35.82
2016-09-12T15:39:47.499Z,35.82
2016-09-12T15:40:47.842Z,36.21
2016-09-12T15:41:47.525Z,36.8
2016-09-12T15:42:47.834Z,35.53
2016-09-12T15:43:47.525Z,35.43
2016-09-12T15:44:47.534Z,35.51
2016-09-12T15:45:47.548Z,35.9
2016-09-12T15:46:47.563Z,35.82
2016-09-12T15:47:47.558Z,36
2016-09-12T15:48:47.561Z,35.9
2016-09-12T15:49:47.560Z,35.61
2016-09-12T15:50:47.570Z,35.61
2016-09-12T15:51:47.572Z,35.72
2016-09-12T15:52:47.892Z,35.8
2016-09-12T15:53:47.584Z,35.41
2016-09-12T15:54:47.591Z,35.41
2016-09-12T15:55:47.598Z,34.73
2016-09-12T15:56:47.926Z,35.22
2016-09-12T15:57:47.611Z,40.19
2016-09-12T15:58:47.613Z,36.1
2016-09-12T15:59:47.621Z,36.29
2016-09-12T16:00:47.630Z,36.68
2016-09-12T16:01:47.889Z,36.68
2016-09-12T16:02:47.639Z,36.78
2016-09-12T16:03:47.848Z,36.78
2016-09-12T16:04:47.655Z,37.07
2016-09-12T16:05:47.656Z,37.07
2016-09-12T16:06:47.680Z,37.75
2016-09-12T16:07:47.681Z,37.27
2016-09-12T16:08:47.683Z,37.63
2016-09-12T16:09:47.697Z,37.46
2016-09-12T16:10:47.691Z,37.65
2016-09-12T16:11:48.019Z,37.45
2016-09-12T16:12:47.703Z,37.45
2016-09-12T16:13:47.715Z,37.63
2016-09-12T16:14:47.716Z,37.63
2016-09-12T16:15:47.719Z,37.73
2016-09-12T16:16:47.721Z,38.22
2016-09-12T16:17:47.728Z,37.93
2016-09-12T16:18:47.733Z,38.61
2016-09-12T16:19:47.744Z,38.42
2016-09-12T16:20:47.745Z,38.32
2016-09-12T16:21:47.749Z,38.51
2016-09-12T16:22:47.757Z,38.02
2016-09-12T16:23:47.764Z,38.32
2016-09-12T16:24:47.769Z,38.42
2016-09-12T16:25:47.774Z,38.42
2016-09-12T16:26:47.783Z,38.51
2016-09-12T16:27:47.786Z,39
2016-09-12T16:28:47.792Z,38.42
2016-09-12T16:29:47.797Z,38.42
2016-09-12T16:30:47.818Z,38.42
2016-09-12T16:31:47.808Z,38.71
2016-09-12T16:32:47.814Z,38.32
2016-09-12T16:33:47.817Z,39.98
2016-09-12T16:34:47.828Z,39.2
2016-09-12T16:35:47.840Z,38.32
2016-09-12T16:36:47.840Z,38.81
2016-09-12T16:37:47.850Z,38.69
2016-09-12T16:38:48.012Z,38.71
2016-09-12T16:39:47.856Z,38.71
2016-09-12T16:40:47.869Z,38.61
2016-09-12T16:41:47.874Z,38.4
2016-09-12T16:42:47.892Z,38.79
2016-09-12T16:43:47.892Z,38.89
2016-09-12T16:44:47.891Z,39.28
2016-09-12T16:45:47.901Z,38.59
2016-09-12T16:46:47.907Z,40.16
2016-09-12T16:47:47.938Z,39.57
2016-09-12T16:48:47.912Z,40.35
2016-09-12T16:49:47.923Z,39.76
2016-09-12T16:50:47.920Z,39.28
2016-09-12T16:51:47.929Z,39.37
2016-09-12T16:52:47.930Z,39.37
2016-09-12T16:53:48.270Z,40.06
2016-09-12T16:54:47.956Z,40.06
2016-09-12T16:55:47.953Z,40.16
2016-09-12T16:56:47.955Z,39.94
2016-09-12T16:57:47.960Z,40.23
2016-09-12T16:58:47.986Z,40.23
2016-09-12T16:59:48.005Z,41.11
2016-09-12T17:00:48.005Z,41.2
2016-09-12T17:01:48.036Z,41.3
2016-09-12T17:02:47.988Z,41.28
2016-09-12T17:03:48.127Z,41.48
2016-09-12T17:04:48.012Z,41.57
2016-09-12T17:05:48.320Z,41.67
2016-09-12T17:06:48.034Z,41.77
2016-09-12T17:07:48.045Z,41.96
2016-09-12T17:08:48.034Z,42.16
2016-09-12T17:09:48.050Z,42.33
2016-09-12T17:10:48.072Z,42.45
2016-09-12T17:11:48.037Z,42.91
2016-09-12T17:12:48.043Z,43.3
2016-09-12T17:13:48.062Z,43.4
2016-09-12T17:14:48.059Z,43.4
2016-09-12T17:15:48.074Z,44.26
2016-09-12T17:16:48.078Z,43.77
2016-09-12T17:17:48.079Z,44.16
2016-09-12T17:18:48.092Z,44.35
2016-09-12T17:19:48.092Z,44.26
2016-09-12T17:20:48.087Z,44.35
2016-09-12T17:21:48.103Z,44.92
2016-09-12T17:22:48.097Z,45.4
2016-09-12T17:23:48.116Z,45.21
2016-09-12T17:24:48.110Z,45.21
2016-09-12T17:25:48.115Z,45.31
2016-09-12T17:26:48.120Z,45.79
2016-09-12T17:27:48.122Z,45.69
2016-09-12T17:28:48.137Z,46.74
2016-09-12T17:29:48.133Z,46.55
2016-09-12T17:30:48.148Z,46.35
2016-09-12T17:31:48.151Z,46.74
2016-09-12T17:32:48.156Z,46.74
2016-09-12T17:33:48.159Z,46.94
2016-09-12T17:34:48.164Z,47.52
2016-09-12T17:35:48.167Z,47.88
2016-09-12T17:36:48.177Z,47.78
2016-09-12T17:37:48.176Z,47.78
2016-09-12T17:38:48.285Z,47.78
2016-09-12T17:39:48.188Z,48.57
2016-09-12T17:40:48.204Z,48.18
2016-09-12T17:41:48.199Z,48.37
2016-09-12T17:42:48.204Z,48.08
2016-09-12T17:43:48.209Z,48.54
2016-09-12T17:44:48.225Z,49.02
2016-09-12T17:45:48.225Z,49.12
2016-09-12T17:46:48.229Z,49.41
2016-09-12T17:47:48.237Z,49.61
2016-09-12T17:48:48.243Z,49.9
2016-09-12T17:49:48.264Z,49.8
2016-09-12T17:50:48.247Z,49.9
2016-09-12T17:51:48.251Z,50.09
2016-09-12T17:52:48.256Z,50.29
2016-09-12T17:53:48.265Z,50.65
2016-09-12T17:54:48.265Z,50.65
2016-09-12T17:55:48.578Z,50.74
2016-09-12T17:56:48.272Z,50.94
2016-09-12T17:57:48.292Z,51.33
2016-09-12T17:58:48.295Z,51.33
2016-09-12T17:59:48.294Z,52.08
2016-09-12T18:00:48.298Z,52.86
2016-09-12T18:01:48.308Z,52.86
2016-09-12T18:02:48.304Z,53.15
2016-09-12T18:03:48.322Z,52.95
2016-09-12T18:04:48.317Z,53.15
2016-09-12T18:05:48.328Z,53.61
2016-09-12T18:06:48.326Z,53.41
2016-09-12T18:07:48.331Z,53.7
2016-09-12T18:08:48.342Z,53.99
2016-09-12T18:09:48.335Z,54.09
2016-09-12T18:10:48.340Z,54.19
2016-09-12T18:11:48.350Z,54.09
2016-09-12T18:12:48.348Z,54.09
2016-09-12T18:13:48.359Z,54.19
2016-09-12T18:14:48.362Z,54.64
2016-09-12T18:15:48.375Z,54.84
2016-09-12T18:16:48.396Z,54.84
2016-09-12T18:17:48.391Z,54.45
2016-09-12T18:18:48.383Z,54.55
2016-09-12T18:19:48.382Z,54.74
2016-09-12T18:20:48.427Z,54.84
2016-09-12T18:21:48.412Z,55.04
2016-09-12T18:22:48.407Z,55.32
2016-09-12T18:23:48.411Z,55.22
2016-09-12T18:24:48.422Z,55.32
2016-09-12T18:25:48.719Z,55.32
2016-09-12T18:26:48.414Z,55.42
2016-09-12T18:27:48.416Z,55.13
2016-09-12T18:28:48.426Z,55.52
2016-09-12T18:29:48.752Z,55.49
2016-09-12T18:30:48.680Z,55.81
2016-09-12T18:31:48.435Z,55.78
2016-09-12T18:32:48.447Z,55.88
2016-09-12T18:33:48.449Z,55.78
2016-09-12T18:34:48.451Z,56.56
2016-09-12T18:35:48.455Z,56.65
2016-09-12T18:36:48.470Z,57.14
2016-09-12T18:37:48.468Z,57.04
2016-09-12T18:38:48.639Z,57.04
2016-09-12T18:39:48.484Z,56.85
2016-09-12T18:40:48.490Z,56.94
2016-09-12T18:41:48.479Z,56.75
2016-09-12T18:42:48.488Z,57.01
2016-09-12T18:43:48.489Z,57.04
2016-09-12T18:44:48.807Z,56.85